Terminal Aerodrome Forecast
Issued by NWS Sterling, VA

Home | Current Version | Previous Version | Text Only | Print | Product List | Glossary On
Versions: 1 2 3 4 5 6 7 8 9 10 11 12 13
131
FTUS41 KLWX 281120
TAFMRB
TAF
KMRB 281120Z 2812/0112 17006KT P6SM SCT120 BKN250
     FM281800 17008KT P6SM -SHRA SCT110 BKN250
     FM010000 19008KT P6SM -SHRA SCT025 OVC030
     FM010300 20007KT 3SM -SHRA BKN010 OVC025
     FM010600 21008KT P6SM OVC025
     FM010900 21008KT P6SM SCT025 OVC060=

USA.gov is the U.S. government's official web portal to all federal, state and local government web resources and services.